Time;durP1;ratioP1;P1;durP2;ratioP2;P2;SDS_P1;SDS_P2;PMS_P1;PMS_P2;Temp;Humidity;BMP_temperature;BMP_pressure;BME280_temperature;BME280_humidity;BME280_pressure;Samples;Min_cycle;Max_cycle;Signal;HPM_P1;HPM_P2
2022/06/07 00:01:26;;;;;;;5.03;4.32;;;;;;;15.45;74.86;94811.47;5131759;27;20114;-70
2022/06/07 00:03:52;;;;;;;8.23;4.82;;;;;;;15.56;74.85;94811.19;5131646;27;20035;-69
2022/06/07 00:06:17;;;;;;;5.28;4.30;;;;;;;15.55;74.86;94801.69;5130538;28;20034;-69
2022/06/07 00:08:43;;;;;;;7.75;4.47;;;;;;;15.55;74.84;94803.50;5131919;27;20038;-69
2022/06/07 00:11:08;;;;;;;5.30;4.35;;;;;;;15.58;75.02;94797.94;5130549;28;20027;-70
2022/06/07 00:13:34;;;;;;;6.00;4.43;;;;;;;15.63;74.79;94806.97;5130482;28;20117;-69
2022/06/07 00:15:59;;;;;;;5.47;4.30;;;;;;;15.68;74.37;94803.03;5131669;27;20039;-71
2022/06/07 00:18:25;;;;;;;6.63;4.63;;;;;;;15.62;74.58;94801.88;5130328;28;20042;-69
2022/06/07 00:20:50;;;;;;;7.07;4.68;;;;;;;15.58;74.40;94804.00;5130510;27;20511;-69
2022/06/07 00:23:16;;;;;;;7.95;4.28;;;;;;;15.61;74.37;94808.91;5113239;28;20511;-69
2022/06/07 00:25:43;;;;;;;8.35;4.70;;;;;;;15.64;74.43;94813.03;5113241;28;20412;-70
2022/06/07 00:28:08;;;;;;;8.45;4.90;;;;;;;15.65;74.76;94807.63;5130317;28;20107;-69
2022/06/07 00:30:34;;;;;;;5.35;4.45;;;;;;;15.73;74.67;94812.09;5095964;28;20497;-69
2022/06/07 00:32:59;;;;;;;7.97;4.80;;;;;;;15.82;74.48;94810.31;5109349;27;20232;-70
2022/06/07 00:35:24;;;;;;;7.07;4.60;;;;;;;15.73;74.74;94817.34;5133756;27;20027;-70
2022/06/07 00:37:50;;;;;;;8.30;4.40;;;;;;;15.67;74.58;94814.50;5133692;27;20403;-69
2022/06/07 00:40:15;;;;;;;6.75;4.40;;;;;;;15.58;74.44;94819.72;5152402;27;20075;-70
2022/06/07 00:42:41;;;;;;;4.78;4.07;;;;;;;15.52;74.22;94820.34;5133744;27;20219;-69
2022/06/07 00:45:10;;;;;;;5.43;4.82;;;;;;;15.41;74.65;94823.25;5133874;27;20487;-69
2022/06/07 00:47:35;;;;;;;5.13;4.40;;;;;;;15.37;74.60;94816.66;5150850;27;20087;-69
2022/06/07 00:50:00;;;;;;;6.35;4.50;;;;;;;15.32;74.80;94817.16;5151086;27;20030;-69
2022/06/07 00:52:29;;;;;;;5.13;4.25;;;;;;;15.30;75.01;94818.28;5151926;27;20394;-69
2022/06/07 00:54:55;;;;;;;6.80;4.15;;;;;;;15.24;74.96;94811.88;5151063;27;20052;-69
2022/06/07 00:57:20;;;;;;;4.85;4.35;;;;;;;15.22;75.18;94819.06;5151513;27;20385;-70
2022/06/07 00:59:46;;;;;;;8.48;4.03;;;;;;;15.17;74.74;94811.66;5154908;27;20042;-69
2022/06/07 01:02:12;;;;;;;8.48;4.10;;;;;;;15.25;74.19;94813.50;5154774;27;20476;-69
2022/06/07 01:04:37;;;;;;;7.18;3.85;;;;;;;15.30;73.67;94826.94;5156058;27;20430;-69
2022/06/07 01:12:34;;;;;;;5.10;3.60;;;;;;;15.14;73.37;94811.16;5154588;27;20080;-69
2022/06/07 01:14:59;;;;;;;6.22;3.83;;;;;;;15.09;73.90;94816.84;5156084;27;20547;-69
2022/06/07 01:17:25;;;;;;;7.85;3.70;;;;;;;15.07;73.93;94813.56;5154302;27;20033;-70
2022/06/07 01:19:50;;;;;;;5.47;3.72;;;;;;;15.06;73.84;94818.94;5154545;27;20033;-69
2022/06/07 01:22:16;;;;;;;5.70;3.72;;;;;;;15.08;74.22;94815.22;5154211;27;20034;-69
2022/06/07 01:24:42;;;;;;;7.30;4.03;;;;;;;15.10;74.53;94823.72;5155274;27;20093;-69
2022/06/07 01:27:08;;;;;;;5.65;4.40;;;;;;;15.08;74.16;94824.84;5155330;27;20027;-69
2022/06/07 01:29:33;;;;;;;8.45;3.95;;;;;;;15.10;74.64;94823.72;5136963;27;20031;-70
2022/06/07 01:31:59;;;;;;;6.57;3.78;;;;;;;15.08;73.56;94825.66;5149055;27;20468;-70
2022/06/07 01:34:24;;;;;;;7.35;3.97;;;;;;;15.11;73.61;94824.53;5134851;27;20023;-69
2022/06/07 01:36:50;;;;;;;5.72;3.42;;;;;;;14.99;73.76;94821.38;5133259;27;20035;-69
2022/06/07 01:41:59;;;;;;;10.77;3.97;;;;;;;15.05;74.67;94831.22;5133714;27;20371;-69
2022/06/07 01:44:25;;;;;;;3.75;3.40;;;;;;;15.00;74.78;94835.25;5116083;27;20039;-69
2022/06/07 01:46:51;;;;;;;6.10;3.60;;;;;;;14.87;74.36;94819.97;5134529;27;20031;-69
2022/06/07 01:49:17;;;;;;;4.35;3.53;;;;;;;14.87;74.47;94817.34;5134493;27;20472;-69
2022/06/07 01:51:42;;;;;;;7.47;3.50;;;;;;;14.87;74.69;94825.19;5115723;27;20442;-69
2022/06/07 01:54:12;;;;;;;4.43;3.40;;;;;;;14.82;74.76;94817.81;5133080;27;20129;-69
2022/06/07 01:56:38;;;;;;;3.80;3.30;;;;;;;14.81;75.02;94815.34;5132808;27;20023;-69
2022/06/07 01:59:04;;;;;;;3.78;3.38;;;;;;;14.80;74.95;94814.53;5132947;27;20037;-69
2022/06/07 02:01:29;;;;;;;6.75;3.65;;;;;;;14.75;74.88;94807.13;5133990;27;20034;-69
2022/06/07 02:03:55;;;;;;;5.85;3.67;;;;;;;14.76;75.11;94807.94;5098517;27;20035;-69
2022/06/07 02:06:20;;;;;;;4.97;3.80;;;;;;;14.66;75.04;94802.84;5133896;27;20389;-69
2022/06/07 02:08:46;;;;;;;6.18;3.42;;;;;;;14.79;74.86;94812.88;5132209;27;20019;-69
2022/06/07 02:11:16;;;;;;;5.38;3.33;;;;;;;14.80;74.55;94813.72;5115334;27;20036;-69
2022/06/07 02:13:41;;;;;;;4.65;3.60;;;;;;;14.83;74.23;94814.22;5132491;27;20034;-69
2022/06/07 02:16:07;;;;;;;7.25;3.60;;;;;;;14.82;74.53;94812.59;5115403;27;20035;-69
2022/06/07 02:18:32;;;;;;;4.57;3.40;;;;;;;14.94;74.28;94810.53;5115211;27;20064;-69
2022/06/07 02:21:00;;;;;;;6.55;3.60;;;;;;;14.90;74.51;94810.00;5115332;27;20039;-70
2022/06/07 02:23:28;;;;;;;3.85;3.45;;;;;;;14.83;74.52;94808.19;5132286;27;20028;-69
2022/06/07 02:25:58;;;;;;;4.43;3.42;;;;;;;14.85;74.52;94800.97;5115520;27;20114;-69
2022/06/07 02:28:26;;;;;;;4.55;3.40;;;;;;;14.88;74.72;94800.69;5115308;27;20069;-69
2022/06/07 02:30:52;;;;;;;4.97;3.67;;;;;;;14.88;74.51;94804.13;5115263;27;20041;-69
2022/06/07 02:33:17;;;;;;;4.25;3.25;;;;;;;14.92;74.77;94799.41;5130876;27;20026;-69
2022/06/07 02:35:42;;;;;;;4.35;3.42;;;;;;;14.97;74.77;94799.78;5135581;27;20023;-69
2022/06/07 02:38:08;;;;;;;4.57;3.40;;;;;;;15.00;74.64;94803.88;5152729;27;20034;-69
2022/06/07 02:40:34;;;;;;;5.22;3.80;;;;;;;14.97;74.92;94797.97;5135529;27;20030;-69
2022/06/07 02:42:59;;;;;;;5.13;3.70;;;;;;;15.08;74.85;94812.59;5152529;27;20034;-69
2022/06/07 02:45:25;;;;;;;4.30;3.38;;;;;;;15.02;74.93;94792.28;5135149;27;20031;-69
2022/06/07 02:47:50;;;;;;;4.80;4.13;;;;;;;15.14;75.26;94809.34;5153861;27;20388;-69
2022/06/07 02:50:16;;;;;;;6.88;3.95;;;;;;;15.18;74.77;94808.09;5153796;27;20046;-69
2022/06/07 02:52:41;;;;;;;4.13;3.45;;;;;;;15.24;74.84;94818.88;5152406;27;20049;-69
2022/06/07 02:55:07;;;;;;;4.35;3.70;;;;;;;15.14;75.06;94824.22;5154141;27;20082;-69
2022/06/07 02:57:32;;;;;;;10.63;3.92;;;;;;;15.15;75.47;94829.28;5153523;27;20027;-69
2022/06/07 02:59:58;;;;;;;7.00;3.75;;;;;;;15.14;75.59;94826.84;5154173;27;20290;-69
2022/06/07 03:02:23;;;;;;;7.03;3.85;;;;;;;15.12;75.37;94834.03;5152222;27;20027;-69
2022/06/07 03:04:49;;;;;;;4.60;3.28;;;;;;;15.11;75.92;94833.22;5117907;27;20112;-69
2022/06/07 03:07:14;;;;;;;4.05;3.60;;;;;;;15.08;76.12;94833.53;5153348;27;20023;-69
2022/06/07 03:09:40;;;;;;;7.25;3.65;;;;;;;15.07;76.18;94833.66;5117854;27;20480;-69
2022/06/07 03:12:06;;;;;;;6.22;3.60;;;;;;;15.05;76.35;94839.06;5152087;27;20069;-69
2022/06/07 03:14:31;;;;;;;5.85;4.10;;;;;;;15.09;76.92;94848.22;5153579;27;20023;-70
2022/06/07 03:16:57;;;;;;;5.93;3.95;;;;;;;15.09;76.54;94852.66;5153184;27;20033;-69
2022/06/07 03:19:22;;;;;;;4.25;3.83;;;;;;;15.08;76.64;94853.63;5152059;27;20058;-69
2022/06/07 03:21:47;;;;;;;4.80;4.30;;;;;;;15.13;76.72;94849.59;5151033;27;20027;-69
2022/06/07 03:24:13;;;;;;;6.05;3.80;;;;;;;15.13;77.20;94849.59;5153286;27;20026;-69
2022/06/07 03:26:38;;;;;;;8.80;4.35;;;;;;;15.14;77.06;94850.41;5134454;27;20027;-69
2022/06/07 03:29:04;;;;;;;6.03;4.40;;;;;;;15.21;76.87;94854.06;5153382;27;20026;-69
2022/06/07 03:31:30;;;;;;;6.72;3.65;;;;;;;15.20;75.09;94855.81;5133626;27;20478;-69
2022/06/07 03:33:55;;;;;;;3.63;3.13;;;;;;;15.29;74.77;94861.09;5132436;27;20027;-69
2022/06/07 03:36:28;;;;;;;4.15;3.35;;;;;;;15.29;74.51;94859.31;5130939;27;20035;-69
2022/06/07 03:38:55;;;;;;;3.85;3.45;;;;;;;15.35;74.33;94857.88;5131159;27;20027;-70
2022/06/07 03:41:22;;;;;;;6.28;3.72;;;;;;;15.37;74.39;94861.16;5116192;27;20489;-69
2022/06/07 03:43:48;;;;;;;9.07;3.67;;;;;;;15.42;74.27;94867.56;5104158;27;20030;-69
2022/06/07 03:46:19;;;;;;;4.13;3.72;;;;;;;15.47;73.88;94864.50;5132089;27;20408;-69
2022/06/07 03:48:45;;;;;;;5.10;3.50;;;;;;;15.53;74.12;94866.47;5129097;27;20024;-69
2022/06/07 03:51:10;;;;;;;4.25;3.58;;;;;;;15.54;73.48;94860.25;5092621;28;20043;-69
2022/06/07 03:53:36;;;;;;;3.67;3.38;;;;;;;15.50;73.64;94864.19;5107322;28;20044;-69
2022/06/07 03:56:02;;;;;;;4.13;3.45;;;;;;;15.51;73.34;94857.97;5111426;28;20542;-69
2022/06/07 03:58:28;;;;;;;6.45;3.30;;;;;;;15.54;73.33;94860.25;5110205;28;20031;-69
2022/06/07 04:00:55;;;;;;;4.53;3.22;;;;;;;15.49;73.22;94862.53;5111340;28;20394;-69
2022/06/07 04:03:22;;;;;;;3.85;3.05;;;;;;;15.50;73.05;94856.31;5110001;28;20027;-69
2022/06/07 04:05:48;;;;;;;4.97;3.22;;;;;;;15.49;73.30;94851.22;5113205;28;20111;-70
2022/06/07 04:08:14;;;;;;;3.95;3.25;;;;;;;15.43;73.12;94855.28;5109974;28;20024;-70
2022/06/07 04:10:51;;;;;;;6.35;3.72;;;;;;;15.37;73.90;94854.13;5101353;28;20039;-69
2022/06/07 04:13:18;;;;;;;6.75;3.70;;;;;;;15.40;73.75;94858.22;5121372;27;20039;-69
2022/06/07 04:15:43;;;;;;;6.18;3.42;;;;;;;15.42;73.78;94858.91;5124610;28;20023;-70
2022/06/07 04:18:09;;;;;;;4.55;3.78;;;;;;;15.41;74.02;94849.41;5115811;28;20035;-69
2022/06/07 04:20:35;;;;;;;5.22;4.00;;;;;;;15.38;74.21;94849.72;5093195;28;20036;-69
2022/06/07 04:23:01;;;;;;;4.90;4.40;;;;;;;15.33;74.25;94844.94;5127643;28;20023;-69
2022/06/07 04:25:27;;;;;;;6.20;4.70;;;;;;;15.48;74.53;94860.06;5131601;27;20031;-69
2022/06/07 04:27:53;;;;;;;7.22;5.32;;;;;;;15.69;74.25;94864.97;5129500;27;20031;-69
2022/06/07 04:30:19;;;;;;;6.03;5.38;;;;;;;16.09;72.96;94870.34;5131540;27;20031;-70
2022/06/07 04:32:47;;;;;;;6.55;5.57;;;;;;;15.91;73.46;94860.94;5126132;27;20157;-69
2022/06/07 04:35:18;;;;;;;6.30;5.25;;;;;;;15.88;73.62;94867.34;5121316;27;20060;-70
2022/06/07 04:37:45;;;;;;;6.40;5.20;;;;;;;16.02;73.49;94853.63;5150697;27;20019;-70
2022/06/07 04:40:11;;;;;;;7.15;5.65;;;;;;;16.03;73.80;94854.44;5133490;27;20129;-70
2022/06/07 04:42:37;;;;;;;5.65;4.75;;;;;;;16.09;73.88;94859.84;5131101;27;20024;-70
2022/06/07 04:45:03;;;;;;;9.02;5.35;;;;;;;16.13;74.07;94860.38;5134355;27;20088;-70
2022/06/07 04:47:28;;;;;;;6.18;5.50;;;;;;;16.21;74.35;94859.56;5117291;27;20053;-70
2022/06/07 04:49:54;;;;;;;5.65;5.15;;;;;;;16.26;74.44;94859.91;5135772;27;20409;-70
2022/06/07 04:52:19;;;;;;;7.00;6.20;;;;;;;16.43;74.27;94860.75;5137732;27;20567;-70
2022/06/07 04:54:45;;;;;;;8.38;6.85;;;;;;;16.56;74.42;94862.91;5154888;27;20023;-70
2022/06/07 04:57:10;;;;;;;11.75;6.93;;;;;;;16.61;74.61;94858.81;5132767;27;20047;-69
2022/06/07 04:59:36;;;;;;;9.27;6.68;;;;;;;16.75;74.38;94871.28;5131336;27;20035;-71
2022/06/07 05:02:01;;;;;;;10.10;7.60;;;;;;;16.92;74.97;94873.94;5117483;27;20096;-71
2022/06/07 05:04:27;;;;;;;11.90;7.85;;;;;;;17.06;74.43;94875.06;5117506;27;20557;-70
2022/06/07 05:06:52;;;;;;;11.00;7.45;;;;;;;17.31;73.80;94870.63;5116771;27;20027;-72
2022/06/07 05:09:20;;;;;;;9.38;6.70;;;;;;;17.50;73.15;94874.69;5132740;27;20038;-73
2022/06/07 05:11:49;;;;;;;7.63;6.32;;;;;;;17.69;72.55;94883.97;5113299;28;20111;-72
2022/06/07 05:14:14;;;;;;;9.13;6.82;;;;;;;17.84;71.81;94877.88;5113310;28;20034;-71
2022/06/07 05:16:41;;;;;;;10.70;7.50;;;;;;;17.99;72.25;94879.78;5128302;27;20035;-70
2022/06/07 05:19:07;;;;;;;10.63;7.57;;;;;;;18.08;70.87;94884.03;5131516;27;20027;-70
2022/06/07 05:21:32;;;;;;;9.68;8.05;;;;;;;18.08;70.76;94878.78;5134832;27;20075;-70
2022/06/07 05:23:58;;;;;;;10.23;7.80;;;;;;;18.17;69.58;94880.38;5116316;27;20481;-69
2022/06/07 05:26:42;;;;;;;10.90;7.65;;;;;;;18.16;69.05;94886.59;5121053;27;20028;-70
2022/06/07 05:29:20;;;;;;;7.85;6.75;;;;;;;18.19;69.37;94885.44;5119756;27;20027;-70
2022/06/07 05:31:45;;;;;;;9.00;7.20;;;;;;;18.14;69.60;94883.34;5117280;27;20083;-69
2022/06/07 05:34:11;;;;;;;10.13;7.80;;;;;;;18.01;69.77;94888.34;5096972;27;20035;-70
2022/06/07 05:36:36;;;;;;;9.70;7.50;;;;;;;18.12;69.79;94882.69;5115999;27;20028;-70
2022/06/07 05:39:03;;;;;;;11.98;7.60;;;;;;;18.21;69.36;94886.09;5114877;27;20457;-70
2022/06/07 05:41:29;;;;;;;9.27;7.72;;;;;;;18.17;69.32;94875.13;5123799;27;20045;-70
2022/06/07 05:43:54;;;;;;;11.95;7.95;;;;;;;18.29;68.85;94886.06;5130091;27;20030;-70
2022/06/07 05:46:20;;;;;;;8.80;6.95;;;;;;;18.34;68.20;94891.63;5132027;27;20062;-70
2022/06/07 05:48:45;;;;;;;11.45;8.20;;;;;;;18.30;68.05;94888.53;5130415;27;20023;-70
2022/06/07 05:51:11;;;;;;;9.45;8.43;;;;;;;18.44;68.60;94894.03;5114534;27;20084;-70
2022/06/07 05:53:36;;;;;;;10.68;7.82;;;;;;;18.33;68.50;94892.63;5113366;27;20096;-70
2022/06/07 05:56:12;;;;;;;9.02;7.50;;;;;;;18.47;67.62;94886.63;5113022;27;20031;-69
2022/06/07 05:58:38;;;;;;;11.50;7.07;;;;;;;18.59;67.39;94892.28;5112059;27;20023;-70
2022/06/07 06:01:04;;;;;;;8.40;6.95;;;;;;;18.86;67.18;94890.16;5129009;27;20027;-70
2022/06/07 06:03:30;;;;;;;9.80;7.15;;;;;;;18.86;66.57;94882.25;5132614;27;20504;-70
2022/06/07 06:05:55;;;;;;;10.38;7.18;;;;;;;18.98;67.02;94892.22;5124034;27;20059;-70
2022/06/07 06:11:07;;;;;;;10.07;6.95;;;;;;;19.34;65.26;94885.50;5130066;27;20054;-69
2022/06/07 06:13:33;;;;;;;9.07;6.85;;;;;;;19.39;64.12;94883.16;5120333;27;20024;-70
2022/06/07 06:16:03;;;;;;;9.70;6.88;;;;;;;19.32;64.57;94883.03;5123660;27;20034;-69
2022/06/07 06:18:28;;;;;;;11.63;7.75;;;;;;;19.40;65.16;94884.78;5114958;27;20081;-71
2022/06/07 06:20:53;;;;;;;10.95;7.30;;;;;;;19.56;64.77;94878.53;5097688;28;20039;-71
2022/06/07 06:23:19;;;;;;;10.23;7.55;;;;;;;19.65;63.97;94874.81;5114223;27;20027;-73
2022/06/07 06:25:44;;;;;;;9.40;7.70;;;;;;;19.72;63.60;94875.72;5127118;27;20413;-72
2022/06/07 06:28:10;;;;;;;7.95;6.75;;;;;;;19.85;63.95;94880.38;5128736;27;20432;-72
2022/06/07 06:30:35;;;;;;;8.98;7.28;;;;;;;19.86;62.91;94868.81;5125567;27;20028;-72
2022/06/07 06:33:01;;;;;;;8.57;6.78;;;;;;;20.00;63.57;94868.00;5112899;28;20031;-72
2022/06/07 06:35:26;;;;;;;9.88;7.50;;;;;;;20.05;62.58;94844.53;5111788;27;20024;-72
2022/06/07 06:37:52;;;;;;;10.35;7.57;;;;;;;20.25;62.67;94862.41;5122314;27;20102;-72
2022/06/07 06:40:18;;;;;;;8.80;6.90;;;;;;;20.39;62.78;94860.72;5115751;27;20043;-72
2022/06/07 06:42:43;;;;;;;9.63;7.20;;;;;;;20.50;61.56;94860.25;5129904;27;20027;-73
2022/06/07 06:45:09;;;;;;;8.20;7.40;;;;;;;20.56;62.06;94869.25;5135277;27;20500;-71
2022/06/07 06:47:35;;;;;;;11.15;7.60;;;;;;;20.65;62.16;94862.88;5129652;27;20535;-72
2022/06/07 06:50:00;;;;;;;9.65;6.80;;;;;;;20.81;61.50;94859.16;5131455;27;20087;-71
2022/06/07 06:52:26;;;;;;;8.32;7.20;;;;;;;21.01;60.86;94856.72;5112724;27;20059;-70
2022/06/07 06:54:51;;;;;;;9.02;7.68;;;;;;;21.12;59.83;94857.00;5130786;27;20030;-71
2022/06/07 06:57:16;;;;;;;9.40;7.03;;;;;;;21.23;60.15;94849.56;5132372;27;20027;-71
2022/06/07 06:59:42;;;;;;;9.27;7.15;;;;;;;21.29;59.42;94854.91;5133284;27;20499;-71
2022/06/07 07:02:10;;;;;;;7.85;7.00;;;;;;;21.36;59.10;94855.75;5130216;27;20466;-71
2022/06/07 07:04:35;;;;;;;7.68;6.53;;;;;;;21.40;59.58;94851.75;5131662;27;20027;-71
2022/06/07 07:07:01;;;;;;;8.68;7.05;;;;;;;21.48;59.18;94842.03;5114247;27;20428;-71
2022/06/07 07:09:28;;;;;;;8.80;6.07;;;;;;;21.54;59.34;94846.56;5132741;27;20027;-71
2022/06/07 07:11:53;;;;;;;8.27;7.30;;;;;;;21.57;58.71;94836.41;5132915;27;20055;-70
2022/06/07 07:14:19;;;;;;;7.70;6.68;;;;;;;21.63;59.79;94840.94;5114425;27;20045;-71
2022/06/07 07:16:47;;;;;;;10.85;7.55;;;;;;;21.71;59.24;94839.97;5132523;27;20034;-71
2022/06/07 07:19:12;;;;;;;7.68;6.63;;;;;;;21.81;59.07;94832.50;5114493;27;20038;-71
2022/06/07 07:21:40;;;;;;;7.75;6.93;;;;;;;21.94;58.84;94836.19;5113105;27;20027;-71
2022/06/07 07:24:08;;;;;;;7.63;6.80;;;;;;;22.06;58.36;94835.47;5114203;27;20031;-71
2022/06/07 07:26:35;;;;;;;10.10;6.95;;;;;;;22.20;58.69;94846.09;5114294;27;21388;-71
2022/06/07 07:29:00;;;;;;;9.07;6.90;;;;;;;22.38;57.48;94843.72;5132663;27;20114;-71
2022/06/07 07:31:30;;;;;;;8.55;7.30;;;;;;;22.57;56.97;94836.06;5131020;27;20027;-71
2022/06/07 07:33:56;;;;;;;6.70;6.03;;;;;;;22.66;56.02;94837.47;5131211;27;20027;-71
2022/06/07 07:36:22;;;;;;;7.43;6.20;;;;;;;22.70;56.29;94825.47;5132137;27;20039;-71
2022/06/07 07:38:47;;;;;;;9.15;7.10;;;;;;;22.81;53.61;94829.34;5132372;27;20449;-71
2022/06/07 07:41:17;;;;;;;7.75;6.75;;;;;;;22.61;56.40;94831.97;5113717;27;20035;-71
2022/06/07 07:43:44;;;;;;;7.80;6.30;;;;;;;22.63;55.79;94830.75;5130985;27;20031;-71
2022/06/07 07:46:10;;;;;;;7.32;6.03;;;;;;;22.78;55.96;94822.63;5130773;27;20046;-71
2022/06/07 07:48:36;;;;;;;7.55;6.32;;;;;;;22.82;54.51;94823.06;5130811;27;20027;-71
2022/06/07 07:51:05;;;;;;;7.50;6.47;;;;;;;22.88;54.05;94816.94;5132087;27;20035;-71
2022/06/07 07:53:31;;;;;;;8.15;6.00;;;;;;;22.96;54.50;94814.13;5132494;27;20413;-71
2022/06/07 07:55:56;;;;;;;8.13;5.97;;;;;;;23.00;53.63;94809.22;5113527;27;20027;-71
2022/06/07 07:58:23;;;;;;;8.40;6.78;;;;;;;22.86;53.67;94813.69;5130602;27;20034;-71
2022/06/07 08:00:49;;;;;;;8.90;6.78;;;;;;;22.63;55.42;94792.88;5113744;27;20042;-71
2022/06/07 08:03:14;;;;;;;8.93;6.22;;;;;;;22.75;56.37;94797.38;5130551;27;20035;-71
2022/06/07 08:05:40;;;;;;;7.13;6.43;;;;;;;22.79;54.93;94792.50;5130599;28;20080;-71
2022/06/07 08:08:05;;;;;;;11.60;7.00;;;;;;;22.90;54.34;94776.00;5131240;27;20027;-71
2022/06/07 08:10:31;;;;;;;6.40;5.80;;;;;;;22.96;55.68;94774.41;5130882;28;20095;-71
2022/06/07 08:12:57;;;;;;;9.02;6.53;;;;;;;23.01;54.80;94784.34;5130476;28;20031;-71
2022/06/07 08:15:23;;;;;;;8.10;5.90;;;;;;;23.11;54.90;94782.13;5131706;27;20035;-72
2022/06/07 08:17:49;;;;;;;6.90;6.20;;;;;;;23.27;56.60;94775.59;5131760;27;20038;-71
2022/06/07 08:20:15;;;;;;;7.32;5.93;;;;;;;23.39;54.67;94764.13;5130609;27;20128;-71
2022/06/07 08:22:40;;;;;;;6.80;6.20;;;;;;;23.55;52.84;94764.72;5113357;28;20060;-71
2022/06/07 08:25:10;;;;;;;7.40;6.57;;;;;;;23.61;52.91;94763.88;5132087;27;20031;-71
2022/06/07 08:27:36;;;;;;;7.85;5.57;;;;;;;23.61;53.32;94764.69;5131631;27;20585;-71
2022/06/07 08:30:04;;;;;;;6.55;5.40;;;;;;;23.72;52.37;94762.44;5096281;28;20028;-71
2022/06/07 08:32:29;;;;;;;9.98;6.05;;;;;;;23.73;52.54;94754.28;5130336;28;20031;-71
2022/06/07 08:37:40;;;;;;;7.72;5.53;;;;;;;23.83;51.87;94746.69;5130515;28;20069;-71
2022/06/07 08:40:23;;;;;;;6.22;4.90;;;;;;;23.90;52.78;94756.44;5113480;28;20118;-71
2022/06/07 08:42:51;;;;;;;9.02;4.80;;;;;;;23.91;51.14;94753.59;5115158;28;20031;-71
2022/06/07 08:45:26;;;;;;;5.65;5.05;;;;;;;24.06;51.87;94755.97;5113156;28;20035;-72
2022/06/07 08:48:03;;;;;;;5.10;4.70;;;;;;;24.18;50.54;94748.16;5113699;28;20564;-71
2022/06/07 08:50:29;;;;;;;4.95;4.55;;;;;;;24.23;49.87;94756.28;5113634;28;20492;-71
2022/06/07 08:53:25;;;;;;;5.55;4.72;;;;;;;24.29;50.43;94750.13;5131187;27;20043;-71
2022/06/07 08:55:57;;;;;;;5.10;4.03;;;;;;;24.29;48.85;94734.19;5131704;27;20035;-71
2022/06/07 08:58:23;;;;;;;4.60;4.20;;;;;;;24.29;47.48;94736.84;5113342;28;20389;-71
2022/06/07 09:00:51;;;;;;;5.07;3.88;;;;;;;24.40;47.70;94730.06;5131317;27;20503;-71
2022/06/07 09:03:41;;;;;;;6.90;4.18;;;;;;;24.58;46.61;94727.50;5130007;28;20019;-71
2022/06/07 09:06:18;;;;;;;5.18;3.90;;;;;;;24.59;45.54;94728.31;5131290;27;20043;-71
2022/06/07 09:08:47;;;;;;;5.95;3.55;;;;;;;24.63;45.34;94724.22;5113800;28;20023;-71
2022/06/07 09:14:39;;;;;;;3.67;2.83;;;;;;;24.74;42.97;94719.00;5131771;28;20100;-71
2022/06/07 09:17:08;;;;;;;4.40;2.72;;;;;;;24.74;41.96;94723.53;5129953;28;20055;-71
2022/06/07 09:19:36;;;;;;;4.25;3.55;;;;;;;24.79;40.23;94717.53;5131265;27;20033;-71
2022/06/07 09:22:13;;;;;;;3.20;2.80;;;;;;;24.81;41.54;94721.59;5134799;27;20122;-71
2022/06/07 09:24:49;;;;;;;3.58;2.80;;;;;;;25.04;41.29;94714.84;5118069;27;20037;-71
2022/06/07 09:27:18;;;;;;;3.40;2.60;;;;;;;25.06;41.14;94712.81;5117365;27;20114;-71
2022/06/07 09:29:55;;;;;;;5.15;2.67;;;;;;;25.11;41.24;94707.66;5135138;27;20054;-71
2022/06/07 09:32:22;;;;;;;3.95;2.80;;;;;;;25.26;39.28;94710.78;5116446;27;20111;-71
2022/06/07 09:34:59;;;;;;;3.50;2.95;;;;;;;25.19;40.28;94700.22;5133621;27;20507;-71
2022/06/07 09:37:31;;;;;;;3.47;2.85;;;;;;;25.07;39.94;94701.13;5133319;27;20035;-71
2022/06/07 09:40:18;;;;;;;5.25;3.33;;;;;;;24.99;39.78;94696.94;5099523;27;20022;-71
2022/06/07 09:42:48;;;;;;;3.92;2.90;;;;;;;25.03;40.65;94692.00;5118545;27;20035;-71
2022/06/07 09:45:14;;;;;;;6.38;3.05;;;;;;;25.00;41.12;94697.75;5116785;27;20027;-71
2022/06/07 09:47:39;;;;;;;4.45;3.30;;;;;;;25.03;40.24;94697.31;5134289;27;20034;-71
2022/06/07 09:50:18;;;;;;;3.25;2.95;;;;;;;25.02;40.43;94690.34;5133231;27;20087;-71
2022/06/07 09:52:45;;;;;;;3.90;2.83;;;;;;;25.01;40.36;94694.03;5115767;27;20055;-71
2022/06/07 09:55:30;;;;;;;3.15;2.85;;;;;;;24.97;39.29;94691.03;5116079;27;20038;-71
2022/06/07 09:58:41;;;;;;;3.63;3.00;;;;;;;24.98;39.02;94688.13;5133155;27;20042;-72
2022/06/07 10:01:26;;;;;;;3.75;3.05;;;;;;;25.13;41.75;94685.13;5131895;27;20043;-71
2022/06/07 10:03:54;;;;;;;3.08;2.78;;;;;;;25.11;39.66;94673.09;5132887;27;20111;-71
2022/06/07 10:06:32;;;;;;;3.70;2.97;;;;;;;25.20;40.74;94682.44;5132599;27;20417;-71
2022/06/07 10:09:12;;;;;;;3.72;2.97;;;;;;;25.27;38.83;94675.22;5132813;27;20027;-71
2022/06/07 10:11:46;;;;;;;3.33;3.00;;;;;;;25.30;39.58;94681.94;5132620;27;20028;-71
2022/06/07 10:14:41;;;;;;;3.40;2.90;;;;;;;25.37;38.84;94670.16;5132643;27;20119;-71
2022/06/07 10:17:41;;;;;;;3.05;2.75;;;;;;;25.44;39.99;94659.47;5114541;27;20066;-71
2022/06/07 10:20:16;;;;;;;4.35;2.60;;;;;;;25.51;39.61;94662.84;5132713;27;20027;-71
2022/06/07 10:22:57;;;;;;;2.97;2.65;;;;;;;25.55;39.03;94663.25;5132485;27;20470;-71
2022/06/07 10:25:35;;;;;;;3.47;2.70;;;;;;;25.58;39.06;94658.28;5132386;27;20073;-71
2022/06/07 10:28:13;;;;;;;3.15;2.85;;;;;;;25.64;38.64;94659.22;5115738;27;20034;-71
2022/06/07 10:31:12;;;;;;;5.75;2.80;;;;;;;25.75;39.98;94652.34;5133102;27;20042;-71
2022/06/07 10:33:48;;;;;;;3.70;2.80;;;;;;;25.91;40.89;94649.09;5133244;27;20083;-71
2022/06/07 10:36:35;;;;;;;3.38;2.90;;;;;;;25.84;37.38;94646.50;5133386;27;20038;-71
2022/06/07 10:39:39;;;;;;;3.20;2.90;;;;;;;25.75;39.32;94647.03;5132160;27;20035;-71
2022/06/07 10:42:26;;;;;;;5.13;2.80;;;;;;;25.66;39.05;94638.53;5116896;27;20047;-71
2022/06/07 10:44:55;;;;;;;5.10;2.70;;;;;;;25.62;39.30;94635.50;5132051;27;20043;-72
2022/06/07 10:47:25;;;;;;;2.90;2.67;;;;;;;25.77;39.80;94639.59;5133100;27;20041;-71
2022/06/07 10:49:54;;;;;;;4.18;2.70;;;;;;;25.84;38.16;94632.38;5133642;27;20037;-71
2022/06/07 10:52:24;;;;;;;7.05;2.95;;;;;;;25.86;35.78;94625.00;5114829;27;20111;-71
2022/06/07 10:54:52;;;;;;;3.25;2.95;;;;;;;25.68;36.97;94625.81;5132089;27;20117;-71
2022/06/07 10:57:32;;;;;;;3.70;2.92;;;;;;;25.79;37.37;94622.38;5132950;27;20025;-72
2022/06/07 10:59:57;;;;;;;;;;;;;;;25.91;35.59;94618.97;5132421;27;20057;-71
2022/06/07 11:02:51;;;;;;;3.08;2.78;;;;;;;25.89;37.27;94613.09;5131782;27;19915;-71
2022/06/07 11:11:12;;;;;;;3.08;2.72;;;;;;;25.94;35.43;94605.25;5131751;27;20092;-71
2022/06/07 11:14:02;;;;;;;4.00;2.90;;;;;;;26.02;35.22;94613.72;5114558;27;20030;-71
2022/06/07 11:16:44;;;;;;;3.17;2.70;;;;;;;26.05;37.41;94610.59;5117293;27;20042;-71
2022/06/07 11:19:10;;;;;;;3.20;2.60;;;;;;;25.88;36.52;94595.50;5131430;27;20100;-71
2022/06/07 11:21:40;;;;;;;3.42;2.50;;;;;;;25.84;34.98;94609.25;5131243;27;20447;-71
2022/06/07 11:24:06;;;;;;;4.35;2.70;;;;;;;25.92;36.19;94607.31;5097369;27;20389;-71
2022/06/07 11:26:50;;;;;;;4.68;2.60;;;;;;;26.06;36.85;94611.41;5132367;27;20034;-71
2022/06/07 11:29:21;;;;;;;3.80;2.20;;;;;;;26.04;36.32;94606.28;5132761;27;20108;-71
2022/06/07 11:31:47;;;;;;;4.25;2.30;;;;;;;26.00;36.32;94599.00;5114631;27;20028;-71
2022/06/07 11:34:29;;;;;;;2.85;2.35;;;;;;;26.18;35.19;94601.56;5113901;27;20035;-71
2022/06/07 11:37:10;;;;;;;2.88;2.20;;;;;;;26.03;35.53;94591.38;5116125;27;20023;-71
2022/06/07 11:39:38;;;;;;;4.38;2.75;;;;;;;26.04;35.58;94600.16;5132589;27;20116;-71
2022/06/07 11:42:06;;;;;;;2.55;2.35;;;;;;;26.00;35.38;94601.69;5131653;27;20038;-71
2022/06/07 11:44:34;;;;;;;2.78;2.40;;;;;;;26.00;36.06;94586.50;5132356;27;20060;-71
2022/06/07 11:47:01;;;;;;;4.47;2.50;;;;;;;26.02;37.11;94591.59;5130747;27;20505;-71
2022/06/07 11:49:31;;;;;;;4.40;2.45;;;;;;;25.66;37.45;94572.06;5130945;27;20068;-71
2022/06/07 11:52:12;;;;;;;4.10;2.40;;;;;;;25.33;39.06;94581.28;5131854;27;20110;-71
2022/06/07 11:54:44;;;;;;;4.38;2.50;;;;;;;25.26;38.85;94579.75;5131036;27;20280;-71
2022/06/07 11:57:27;;;;;;;3.50;2.35;;;;;;;25.28;39.10;94581.13;5131911;27;20027;-71
2022/06/07 12:00:22;;;;;;;3.60;2.40;;;;;;;25.26;38.99;94577.06;5113677;28;20539;-71
2022/06/07 12:02:57;;;;;;;2.63;2.35;;;;;;;25.28;38.69;94572.34;5130744;27;20056;-71
2022/06/07 12:05:41;;;;;;;3.10;2.30;;;;;;;25.32;36.92;94570.84;5130439;27;20131;-71